sensor_id;sensor_type;location;lat;lon;timestamp;P1;durP1;ratioP1;P2;durP2;ratioP2
1799;SDS011;919;48.274;12.292;2023-11-21T00:00:22;4.63;;;2.33;;
1799;SDS011;919;48.274;12.292;2023-11-21T00:02:49;2.60;;;2.40;;
1799;SDS011;919;48.274;12.292;2023-11-21T00:05:16;2.97;;;2.73;;
1799;SDS011;919;48.274;12.292;2023-11-21T00:07:43;2.83;;;2.20;;
1799;SDS011;919;48.274;12.292;2023-11-21T00:10:10;3.33;;;3.03;;
1799;SDS011;919;48.274;12.292;2023-11-21T00:12:39;3.37;;;3.07;;
1799;SDS011;919;48.274;12.292;2023-11-21T00:15:07;4.77;;;3.20;;
1799;SDS011;919;48.274;12.292;2023-11-21T00:17:37;6.23;;;3.40;;
1799;SDS011;919;48.274;12.292;2023-11-21T00:20:05;9.90;;;4.20;;
1799;SDS011;919;48.274;12.292;2023-11-21T00:22:32;4.87;;;2.93;;
1799;SDS011;919;48.274;12.292;2023-11-21T00:24:59;3.37;;;2.53;;
1799;SDS011;919;48.274;12.292;2023-11-21T00:27:26;5.30;;;3.13;;
1799;SDS011;919;48.274;12.292;2023-11-21T00:29:52;5.90;;;3.20;;
1799;SDS011;919;48.274;12.292;2023-11-21T00:32:19;5.03;;;3.00;;
1799;SDS011;919;48.274;12.292;2023-11-21T00:34:47;3.97;;;3.17;;
1799;SDS011;919;48.274;12.292;2023-11-21T00:37:14;4.40;;;3.17;;
1799;SDS011;919;48.274;12.292;2023-11-21T00:39:41;3.90;;;3.10;;
1799;SDS011;919;48.274;12.292;2023-11-21T00:42:07;5.93;;;3.03;;
1799;SDS011;919;48.274;12.292;2023-11-21T00:44:37;3.70;;;2.63;;
1799;SDS011;919;48.274;12.292;2023-11-21T00:47:04;3.73;;;2.77;;
1799;SDS011;919;48.274;12.292;2023-11-21T00:49:30;3.30;;;2.53;;
1799;SDS011;919;48.274;12.292;2023-11-21T00:51:58;4.13;;;3.43;;
1799;SDS011;919;48.274;12.292;2023-11-21T00:54:26;3.23;;;2.93;;
1799;SDS011;919;48.274;12.292;2023-11-21T00:56:53;5.80;;;2.37;;
1799;SDS011;919;48.274;12.292;2023-11-21T00:59:20;4.13;;;3.70;;
1799;SDS011;919;48.274;12.292;2023-11-21T01:01:48;3.23;;;2.90;;
1799;SDS011;919;48.274;12.292;2023-11-21T01:04:14;3.67;;;3.00;;
1799;SDS011;919;48.274;12.292;2023-11-21T01:06:40;2.63;;;2.43;;
1799;SDS011;919;48.274;12.292;2023-11-21T01:09:08;2.70;;;2.50;;
1799;SDS011;919;48.274;12.292;2023-11-21T01:11:35;4.73;;;3.00;;
1799;SDS011;919;48.274;12.292;2023-11-21T01:14:03;4.60;;;3.37;;
1799;SDS011;919;48.274;12.292;2023-11-21T01:16:31;3.53;;;2.80;;
1799;SDS011;919;48.274;12.292;2023-11-21T01:18:58;4.50;;;3.10;;
1799;SDS011;919;48.274;12.292;2023-11-21T01:21:25;5.87;;;2.80;;
1799;SDS011;919;48.274;12.292;2023-11-21T01:23:53;4.90;;;3.13;;
1799;SDS011;919;48.274;12.292;2023-11-21T01:26:21;2.70;;;2.50;;
1799;SDS011;919;48.274;12.292;2023-11-21T01:28:48;4.80;;;2.50;;
1799;SDS011;919;48.274;12.292;2023-11-21T01:31:15;3.20;;;2.90;;
1799;SDS011;919;48.274;12.292;2023-11-21T01:33:42;3.83;;;3.40;;
1799;SDS011;919;48.274;12.292;2023-11-21T01:36:09;7.07;;;3.00;;
1799;SDS011;919;48.274;12.292;2023-11-21T01:38:36;3.03;;;2.50;;
1799;SDS011;919;48.274;12.292;2023-11-21T01:41:03;3.70;;;3.10;;
1799;SDS011;919;48.274;12.292;2023-11-21T01:43:32;4.60;;;2.87;;
1799;SDS011;919;48.274;12.292;2023-11-21T01:45:59;4.03;;;2.93;;
1799;SDS011;919;48.274;12.292;2023-11-21T01:48:26;3.70;;;3.00;;
1799;SDS011;919;48.274;12.292;2023-11-21T01:50:54;3.00;;;2.70;;
1799;SDS011;919;48.274;12.292;2023-11-21T01:53:21;3.90;;;2.93;;
1799;SDS011;919;48.274;12.292;2023-11-21T01:55:50;2.47;;;2.27;;
1799;SDS011;919;48.274;12.292;2023-11-21T01:58:18;2.93;;;2.73;;
1799;SDS011;919;48.274;12.292;2023-11-21T02:00:48;2.50;;;2.20;;
1799;SDS011;919;48.274;12.292;2023-11-21T02:03:15;5.20;;;3.17;;
1799;SDS011;919;48.274;12.292;2023-11-21T02:05:42;2.70;;;2.27;;
1799;SDS011;919;48.274;12.292;2023-11-21T02:08:09;2.50;;;2.30;;
1799;SDS011;919;48.274;12.292;2023-11-21T02:10:36;3.40;;;2.97;;
1799;SDS011;919;48.274;12.292;2023-11-21T02:13:03;2.97;;;2.40;;
1799;SDS011;919;48.274;12.292;2023-11-21T02:15:31;3.67;;;2.40;;
1799;SDS011;919;48.274;12.292;2023-11-21T02:17:59;2.50;;;2.30;;
1799;SDS011;919;48.274;12.292;2023-11-21T02:20:28;2.40;;;2.30;;
1799;SDS011;919;48.274;12.292;2023-11-21T02:22:57;2.60;;;2.40;;
1799;SDS011;919;48.274;12.292;2023-11-21T02:25:24;2.30;;;2.10;;
1799;SDS011;919;48.274;12.292;2023-11-21T02:27:52;2.70;;;2.37;;
1799;SDS011;919;48.274;12.292;2023-11-21T02:30:20;6.13;;;3.13;;
1799;SDS011;919;48.274;12.292;2023-11-21T02:32:47;2.80;;;2.60;;
1799;SDS011;919;48.274;12.292;2023-11-21T02:35:14;3.20;;;2.87;;
1799;SDS011;919;48.274;12.292;2023-11-21T02:37:41;2.80;;;1.93;;
1799;SDS011;919;48.274;12.292;2023-11-21T02:40:10;2.30;;;1.93;;
1799;SDS011;919;48.274;12.292;2023-11-21T02:42:38;2.30;;;2.10;;
1799;SDS011;919;48.274;12.292;2023-11-21T02:45:06;2.93;;;2.43;;
1799;SDS011;919;48.274;12.292;2023-11-21T02:47:33;3.07;;;2.50;;
1799;SDS011;919;48.274;12.292;2023-11-21T02:50:00;2.63;;;2.43;;
1799;SDS011;919;48.274;12.292;2023-11-21T02:52:27;3.43;;;2.07;;
1799;SDS011;919;48.274;12.292;2023-11-21T02:54:54;2.83;;;2.63;;
1799;SDS011;919;48.274;12.292;2023-11-21T02:57:22;4.33;;;2.77;;
1799;SDS011;919;48.274;12.292;2023-11-21T02:59:49;2.53;;;2.33;;
1799;SDS011;919;48.274;12.292;2023-11-21T03:02:15;3.27;;;2.60;;
1799;SDS011;919;48.274;12.292;2023-11-21T03:04:42;5.03;;;2.63;;
1799;SDS011;919;48.274;12.292;2023-11-21T03:07:09;4.20;;;2.87;;
1799;SDS011;919;48.274;12.292;2023-11-21T03:09:36;7.73;;;2.80;;
1799;SDS011;919;48.274;12.292;2023-11-21T03:12:03;3.10;;;2.80;;
1799;SDS011;919;48.274;12.292;2023-11-21T03:14:32;4.20;;;3.10;;
1799;SDS011;919;48.274;12.292;2023-11-21T03:16:58;2.70;;;2.50;;
1799;SDS011;919;48.274;12.292;2023-11-21T03:19:25;2.97;;;2.67;;
1799;SDS011;919;48.274;12.292;2023-11-21T03:21:52;3.13;;;2.83;;
1799;SDS011;919;48.274;12.292;2023-11-21T03:24:19;5.60;;;2.80;;
1799;SDS011;919;48.274;12.292;2023-11-21T03:26:47;2.97;;;2.70;;
1799;SDS011;919;48.274;12.292;2023-11-21T03:29:15;4.10;;;2.90;;
1799;SDS011;919;48.274;12.292;2023-11-21T03:31:43;4.47;;;3.00;;
1799;SDS011;919;48.274;12.292;2023-11-21T03:34:14;3.90;;;3.10;;
1799;SDS011;919;48.274;12.292;2023-11-21T03:36:41;2.97;;;1.80;;
1799;SDS011;919;48.274;12.292;2023-11-21T03:39:08;2.43;;;1.80;;
1799;SDS011;919;48.274;12.292;2023-11-21T03:41:35;5.43;;;1.33;;
1799;SDS011;919;48.274;12.292;2023-11-21T03:44:01;1.20;;;1.10;;
1799;SDS011;919;48.274;12.292;2023-11-21T03:46:28;1.23;;;0.87;;
1799;SDS011;919;48.274;12.292;2023-11-21T03:48:56;1.27;;;0.97;;
1799;SDS011;919;48.274;12.292;2023-11-21T03:51:23;2.83;;;0.77;;
1799;SDS011;919;48.274;12.292;2023-11-21T03:53:50;3.17;;;0.80;;
1799;SDS011;919;48.274;12.292;2023-11-21T03:56:16;3.90;;;0.90;;
1799;SDS011;919;48.274;12.292;2023-11-21T03:58:43;0.77;;;0.60;;
1799;SDS011;919;48.274;12.292;2023-11-21T04:01:10;2.23;;;0.77;;
1799;SDS011;919;48.274;12.292;2023-11-21T04:03:36;2.40;;;0.90;;
1799;SDS011;919;48.274;12.292;2023-11-21T04:06:06;1.17;;;0.70;;
1799;SDS011;919;48.274;12.292;2023-11-21T04:08:34;7.40;;;1.63;;
1799;SDS011;919;48.274;12.292;2023-11-21T04:11:01;2.87;;;1.00;;
1799;SDS011;919;48.274;12.292;2023-11-21T04:13:27;0.87;;;0.77;;
1799;SDS011;919;48.274;12.292;2023-11-21T04:15:54;1.10;;;0.80;;
1799;SDS011;919;48.274;12.292;2023-11-21T04:18:22;1.57;;;0.80;;
1799;SDS011;919;48.274;12.292;2023-11-21T04:20:49;4.50;;;1.30;;
1799;SDS011;919;48.274;12.292;2023-11-21T04:23:17;0.83;;;0.83;;
1799;SDS011;919;48.274;12.292;2023-11-21T04:25:44;1.00;;;0.80;;
1799;SDS011;919;48.274;12.292;2023-11-21T04:28:10;0.87;;;0.60;;
1799;SDS011;919;48.274;12.292;2023-11-21T04:30:38;1.53;;;0.70;;
1799;SDS011;919;48.274;12.292;2023-11-21T04:33:05;0.67;;;0.67;;
1799;SDS011;919;48.274;12.292;2023-11-21T04:35:32;2.80;;;0.70;;
1799;SDS011;919;48.274;12.292;2023-11-21T04:37:59;0.67;;;0.67;;
1799;SDS011;919;48.274;12.292;2023-11-21T04:40:27;0.47;;;0.47;;
1799;SDS011;919;48.274;12.292;2023-11-21T04:42:54;0.50;;;0.47;;
1799;SDS011;919;48.274;12.292;2023-11-21T04:45:22;0.50;;;0.50;;
1799;SDS011;919;48.274;12.292;2023-11-21T04:47:48;0.60;;;0.60;;
1799;SDS011;919;48.274;12.292;2023-11-21T04:50:15;1.30;;;0.67;;
1799;SDS011;919;48.274;12.292;2023-11-21T04:52:42;0.60;;;0.60;;
1799;SDS011;919;48.274;12.292;2023-11-21T04:55:09;0.80;;;0.80;;
1799;SDS011;919;48.274;12.292;2023-11-21T04:57:37;0.90;;;0.73;;
1799;SDS011;919;48.274;12.292;2023-11-21T05:00:08;0.50;;;0.50;;
1799;SDS011;919;48.274;12.292;2023-11-21T05:02:35;0.63;;;0.63;;
1799;SDS011;919;48.274;12.292;2023-11-21T05:05:03;1.00;;;0.90;;
1799;SDS011;919;48.274;12.292;2023-11-21T05:07:30;0.50;;;0.50;;
1799;SDS011;919;48.274;12.292;2023-11-21T05:09:58;1.13;;;0.80;;
1799;SDS011;919;48.274;12.292;2023-11-21T05:12:25;0.60;;;0.60;;
1799;SDS011;919;48.274;12.292;2023-11-21T05:14:53;0.80;;;0.60;;
1799;SDS011;919;48.274;12.292;2023-11-21T05:17:20;0.50;;;0.50;;
1799;SDS011;919;48.274;12.292;2023-11-21T05:19:47;0.50;;;0.50;;
1799;SDS011;919;48.274;12.292;2023-11-21T05:22:14;0.73;;;0.50;;
1799;SDS011;919;48.274;12.292;2023-11-21T05:24:40;0.57;;;0.57;;
1799;SDS011;919;48.274;12.292;2023-11-21T05:27:07;1.20;;;0.90;;
1799;SDS011;919;48.274;12.292;2023-11-21T05:29:34;0.40;;;0.40;;
1799;SDS011;919;48.274;12.292;2023-11-21T05:32:04;0.40;;;0.40;;
1799;SDS011;919;48.274;12.292;2023-11-21T05:34:31;0.50;;;0.50;;
1799;SDS011;919;48.274;12.292;2023-11-21T05:36:57;1.50;;;0.40;;
1799;SDS011;919;48.274;12.292;2023-11-21T05:39:24;0.50;;;0.50;;
1799;SDS011;919;48.274;12.292;2023-11-21T05:41:52;0.57;;;0.57;;
1799;SDS011;919;48.274;12.292;2023-11-21T05:44:20;0.90;;;0.90;;
1799;SDS011;919;48.274;12.292;2023-11-21T05:46:48;0.70;;;0.70;;
1799;SDS011;919;48.274;12.292;2023-11-21T05:49:16;0.70;;;0.70;;
1799;SDS011;919;48.274;12.292;2023-11-21T05:51:46;0.60;;;0.60;;
1799;SDS011;919;48.274;12.292;2023-11-21T05:54:13;2.37;;;1.17;;
1799;SDS011;919;48.274;12.292;2023-11-21T05:56:40;1.27;;;1.10;;
1799;SDS011;919;48.274;12.292;2023-11-21T05:59:07;1.23;;;0.93;;
1799;SDS011;919;48.274;12.292;2023-11-21T06:01:33;0.80;;;0.80;;
1799;SDS011;919;48.274;12.292;2023-11-21T06:04:03;0.80;;;0.80;;
1799;SDS011;919;48.274;12.292;2023-11-21T06:06:31;1.03;;;0.67;;
1799;SDS011;919;48.274;12.292;2023-11-21T06:08:57;1.73;;;1.20;;
1799;SDS011;919;48.274;12.292;2023-11-21T06:11:24;1.80;;;1.10;;
1799;SDS011;919;48.274;12.292;2023-11-21T06:13:51;1.70;;;0.93;;
1799;SDS011;919;48.274;12.292;2023-11-21T06:16:18;1.33;;;0.93;;
1799;SDS011;919;48.274;12.292;2023-11-21T06:18:45;1.10;;;0.87;;
1799;SDS011;919;48.274;12.292;2023-11-21T06:21:12;0.80;;;0.80;;
1799;SDS011;919;48.274;12.292;2023-11-21T06:23:40;0.60;;;0.60;;
1799;SDS011;919;48.274;12.292;2023-11-21T06:26:07;1.30;;;1.20;;
1799;SDS011;919;48.274;12.292;2023-11-21T06:28:34;3.80;;;1.10;;
1799;SDS011;919;48.274;12.292;2023-11-21T06:31:01;1.40;;;1.20;;
1799;SDS011;919;48.274;12.292;2023-11-21T06:33:30;2.77;;;1.13;;
1799;SDS011;919;48.274;12.292;2023-11-21T06:35:56;1.90;;;0.90;;
1799;SDS011;919;48.274;12.292;2023-11-21T06:38:23;1.00;;;1.00;;
1799;SDS011;919;48.274;12.292;2023-11-21T06:40:56;2.23;;;1.00;;
1799;SDS011;919;48.274;12.292;2023-11-21T06:43:23;1.60;;;1.40;;
1799;SDS011;919;48.274;12.292;2023-11-21T06:45:49;1.10;;;1.00;;
1799;SDS011;919;48.274;12.292;2023-11-21T06:48:16;2.13;;;1.00;;
1799;SDS011;919;48.274;12.292;2023-11-21T06:50:43;3.53;;;1.13;;
1799;SDS011;919;48.274;12.292;2023-11-21T06:53:11;1.00;;;0.90;;
1799;SDS011;919;48.274;12.292;2023-11-21T06:55:38;1.57;;;1.30;;
1799;SDS011;919;48.274;12.292;2023-11-21T06:58:06;2.20;;;1.17;;
1799;SDS011;919;48.274;12.292;2023-11-21T07:00:33;0.73;;;0.60;;
1799;SDS011;919;48.274;12.292;2023-11-21T07:03:00;1.40;;;1.30;;
1799;SDS011;919;48.274;12.292;2023-11-21T07:05:27;2.47;;;1.20;;
1799;SDS011;919;48.274;12.292;2023-11-21T07:07:53;1.03;;;1.00;;
1799;SDS011;919;48.274;12.292;2023-11-21T07:10:20;1.00;;;0.90;;
1799;SDS011;919;48.274;12.292;2023-11-21T07:12:47;1.17;;;1.07;;
1799;SDS011;919;48.274;12.292;2023-11-21T07:15:15;1.97;;;0.97;;
1799;SDS011;919;48.274;12.292;2023-11-21T07:17:42;0.80;;;0.80;;
1799;SDS011;919;48.274;12.292;2023-11-21T07:20:09;2.93;;;1.00;;
1799;SDS011;919;48.274;12.292;2023-11-21T07:22:37;0.73;;;0.73;;
1799;SDS011;919;48.274;12.292;2023-11-21T07:25:04;1.97;;;1.00;;
1799;SDS011;919;48.274;12.292;2023-11-21T07:27:32;0.67;;;0.67;;
1799;SDS011;919;48.274;12.292;2023-11-21T07:30:00;0.87;;;0.87;;
1799;SDS011;919;48.274;12.292;2023-11-21T07:32:30;1.30;;;1.20;;
1799;SDS011;919;48.274;12.292;2023-11-21T07:34:57;1.23;;;1.07;;
1799;SDS011;919;48.274;12.292;2023-11-21T07:37:25;2.40;;;1.20;;
1799;SDS011;919;48.274;12.292;2023-11-21T07:39:53;1.37;;;1.30;;
1799;SDS011;919;48.274;12.292;2023-11-21T07:42:21;1.40;;;1.20;;
1799;SDS011;919;48.274;12.292;2023-11-21T07:44:48;7.77;;;1.60;;
1799;SDS011;919;48.274;12.292;2023-11-21T07:47:15;3.00;;;1.50;;
1799;SDS011;919;48.274;12.292;2023-11-21T07:49:43;1.40;;;1.30;;
1799;SDS011;919;48.274;12.292;2023-11-21T07:52:13;1.50;;;1.40;;
1799;SDS011;919;48.274;12.292;2023-11-21T07:54:41;1.40;;;1.30;;
1799;SDS011;919;48.274;12.292;2023-11-21T07:57:08;1.57;;;1.30;;
1799;SDS011;919;48.274;12.292;2023-11-21T07:59:38;1.30;;;1.20;;
1799;SDS011;919;48.274;12.292;2023-11-21T08:02:05;1.50;;;1.40;;
1799;SDS011;919;48.274;12.292;2023-11-21T08:04:32;1.53;;;1.43;;
1799;SDS011;919;48.274;12.292;2023-11-21T08:07:00;1.57;;;1.47;;
1799;SDS011;919;48.274;12.292;2023-11-21T08:09:28;2.33;;;1.33;;
1799;SDS011;919;48.274;12.292;2023-11-21T08:11:55;1.77;;;1.67;;
1799;SDS011;919;48.274;12.292;2023-11-21T08:14:22;1.70;;;1.50;;
1799;SDS011;919;48.274;12.292;2023-11-21T08:16:50;1.50;;;1.40;;
1799;SDS011;919;48.274;12.292;2023-11-21T08:19:17;2.40;;;1.43;;
1799;SDS011;919;48.274;12.292;2023-11-21T08:21:44;1.50;;;1.37;;
1799;SDS011;919;48.274;12.292;2023-11-21T08:24:12;2.13;;;0.93;;
1799;SDS011;919;48.274;12.292;2023-11-21T08:26:39;1.00;;;1.00;;
1799;SDS011;919;48.274;12.292;2023-11-21T08:29:05;1.67;;;1.10;;
1799;SDS011;919;48.274;12.292;2023-11-21T08:31:33;0.90;;;0.90;;
1799;SDS011;919;48.274;12.292;2023-11-21T08:34:00;1.63;;;1.53;;
1799;SDS011;919;48.274;12.292;2023-11-21T08:36:28;1.20;;;1.10;;
1799;SDS011;919;48.274;12.292;2023-11-21T08:38:56;1.37;;;1.27;;
1799;SDS011;919;48.274;12.292;2023-11-21T08:41:25;1.77;;;1.23;;
1799;SDS011;919;48.274;12.292;2023-11-21T08:43:53;2.57;;;1.70;;
1799;SDS011;919;48.274;12.292;2023-11-21T08:46:23;1.17;;;1.10;;
1799;SDS011;919;48.274;12.292;2023-11-21T08:49:10;1.43;;;1.23;;
1799;SDS011;919;48.274;12.292;2023-11-21T08:52:25;1.67;;;0.93;;
1799;SDS011;919;48.274;12.292;2023-11-21T09:02:27;0.80;;;0.47;;
1799;SDS011;919;48.274;12.292;2023-11-21T09:05:00;1.43;;;0.53;;
1799;SDS011;919;48.274;12.292;2023-11-21T09:11:14;0.60;;;0.60;;
1799;SDS011;919;48.274;12.292;2023-11-21T09:16:16;0.70;;;0.60;;
1799;SDS011;919;48.274;12.292;2023-11-21T09:18:44;1.73;;;0.70;;
1799;SDS011;919;48.274;12.292;2023-11-21T09:21:11;1.40;;;0.80;;
1799;SDS011;919;48.274;12.292;2023-11-21T09:23:38;1.00;;;0.63;;
1799;SDS011;919;48.274;12.292;2023-11-21T09:26:05;0.80;;;0.60;;
1799;SDS011;919;48.274;12.292;2023-11-21T09:28:31;0.50;;;0.50;;
1799;SDS011;919;48.274;12.292;2023-11-21T09:30:59;0.50;;;0.50;;
1799;SDS011;919;48.274;12.292;2023-11-21T09:33:28;0.70;;;0.70;;
1799;SDS011;919;48.274;12.292;2023-11-21T09:35:57;0.60;;;0.50;;
1799;SDS011;919;48.274;12.292;2023-11-21T09:38:23;0.97;;;0.60;;
1799;SDS011;919;48.274;12.292;2023-11-21T09:40:50;1.23;;;0.60;;
1799;SDS011;919;48.274;12.292;2023-11-21T09:43:19;0.40;;;0.40;;
1799;SDS011;919;48.274;12.292;2023-11-21T09:45:48;0.80;;;0.50;;
1799;SDS011;919;48.274;12.292;2023-11-21T09:48:20;0.97;;;0.60;;
1799;SDS011;919;48.274;12.292;2023-11-21T09:50:47;0.90;;;0.70;;
1799;SDS011;919;48.274;12.292;2023-11-21T09:53:17;0.40;;;0.40;;
1799;SDS011;919;48.274;12.292;2023-11-21T09:55:46;2.70;;;0.87;;
1799;SDS011;919;48.274;12.292;2023-11-21T09:58:16;0.60;;;0.60;;
1799;SDS011;919;48.274;12.292;2023-11-21T10:00:44;0.60;;;0.60;;
1799;SDS011;919;48.274;12.292;2023-11-21T10:03:13;0.67;;;0.67;;
1799;SDS011;919;48.274;12.292;2023-11-21T10:05:42;0.93;;;0.77;;
1799;SDS011;919;48.274;12.292;2023-11-21T10:08:11;0.80;;;0.67;;
1799;SDS011;919;48.274;12.292;2023-11-21T10:10:42;1.23;;;0.60;;
1799;SDS011;919;48.274;12.292;2023-11-21T10:13:10;0.90;;;0.90;;
1799;SDS011;919;48.274;12.292;2023-11-21T10:15:41;1.13;;;0.80;;
1799;SDS011;919;48.274;12.292;2023-11-21T10:18:13;0.97;;;0.83;;
1799;SDS011;919;48.274;12.292;2023-11-21T10:20:41;0.97;;;0.97;;
1799;SDS011;919;48.274;12.292;2023-11-21T10:23:09;0.87;;;0.80;;
1799;SDS011;919;48.274;12.292;2023-11-21T10:25:38;0.70;;;0.70;;
1799;SDS011;919;48.274;12.292;2023-11-21T10:28:06;1.23;;;0.80;;
1799;SDS011;919;48.274;12.292;2023-11-21T10:30:34;1.47;;;0.83;;
1799;SDS011;919;48.274;12.292;2023-11-21T10:33:02;0.83;;;0.63;;
1799;SDS011;919;48.274;12.292;2023-11-21T10:35:39;1.37;;;0.90;;
1799;SDS011;919;48.274;12.292;2023-11-21T10:38:11;2.53;;;0.90;;
1799;SDS011;919;48.274;12.292;2023-11-21T10:40:40;0.77;;;0.77;;
1799;SDS011;919;48.274;12.292;2023-11-21T10:43:07;1.67;;;0.90;;
1799;SDS011;919;48.274;12.292;2023-11-21T10:45:35;1.07;;;1.00;;
1799;SDS011;919;48.274;12.292;2023-11-21T10:48:04;1.33;;;1.00;;
1799;SDS011;919;48.274;12.292;2023-11-21T10:50:34;1.20;;;1.10;;
1799;SDS011;919;48.274;12.292;2023-11-21T10:53:01;1.10;;;1.00;;
1799;SDS011;919;48.274;12.292;2023-11-21T10:55:30;1.00;;;0.97;;
1799;SDS011;919;48.274;12.292;2023-11-21T10:58:01;1.97;;;1.10;;
1799;SDS011;919;48.274;12.292;2023-11-21T11:00:30;1.30;;;1.20;;
1799;SDS011;919;48.274;12.292;2023-11-21T11:02:57;1.20;;;1.10;;
1799;SDS011;919;48.274;12.292;2023-11-21T11:05:27;1.37;;;1.27;;
1799;SDS011;919;48.274;12.292;2023-11-21T11:07:56;1.70;;;1.30;;
1799;SDS011;919;48.274;12.292;2023-11-21T11:10:26;1.73;;;1.40;;
1799;SDS011;919;48.274;12.292;2023-11-21T11:12:54;1.40;;;1.30;;
1799;SDS011;919;48.274;12.292;2023-11-21T11:15:23;1.67;;;1.57;;
1799;SDS011;919;48.274;12.292;2023-11-21T11:17:52;1.90;;;1.80;;
1799;SDS011;919;48.274;12.292;2023-11-21T11:20:22;1.40;;;1.40;;
1799;SDS011;919;48.274;12.292;2023-11-21T11:22:56;2.47;;;1.50;;
1799;SDS011;919;48.274;12.292;2023-11-21T11:25:41;1.80;;;1.70;;
1799;SDS011;919;48.274;12.292;2023-11-21T11:28:19;2.03;;;1.93;;
1799;SDS011;919;48.274;12.292;2023-11-21T11:30:53;1.50;;;1.40;;
1799;SDS011;919;48.274;12.292;2023-11-21T11:33:30;1.90;;;1.70;;
1799;SDS011;919;48.274;12.292;2023-11-21T11:36:04;1.43;;;1.33;;
1799;SDS011;919;48.274;12.292;2023-11-21T11:38:36;2.07;;;1.97;;
1799;SDS011;919;48.274;12.292;2023-11-21T11:41:03;3.00;;;1.57;;
1799;SDS011;919;48.274;12.292;2023-11-21T11:43:31;1.80;;;1.70;;
1799;SDS011;919;48.274;12.292;2023-11-21T11:46:09;1.90;;;1.40;;
1799;SDS011;919;48.274;12.292;2023-11-21T11:48:38;1.50;;;1.40;;
1799;SDS011;919;48.274;12.292;2023-11-21T11:51:06;1.50;;;1.40;;
1799;SDS011;919;48.274;12.292;2023-11-21T11:53:37;2.70;;;1.87;;
1799;SDS011;919;48.274;12.292;2023-11-21T11:56:19;1.90;;;1.80;;
1799;SDS011;919;48.274;12.292;2023-11-21T11:58:51;2.20;;;2.00;;
1799;SDS011;919;48.274;12.292;2023-11-21T12:01:22;1.70;;;1.60;;
1799;SDS011;919;48.274;12.292;2023-11-21T12:06:56;3.07;;;1.60;;
1799;SDS011;919;48.274;12.292;2023-11-21T12:09:27;1.40;;;1.30;;
1799;SDS011;919;48.274;12.292;2023-11-21T12:11:56;1.90;;;1.80;;
1799;SDS011;919;48.274;12.292;2023-11-21T12:14:23;1.50;;;1.40;;
1799;SDS011;919;48.274;12.292;2023-11-21T12:16:51;1.47;;;1.37;;
1799;SDS011;919;48.274;12.292;2023-11-21T12:19:19;1.77;;;1.67;;
1799;SDS011;919;48.274;12.292;2023-11-21T12:21:47;2.87;;;1.80;;
1799;SDS011;919;48.274;12.292;2023-11-21T12:24:15;2.23;;;2.13;;
1799;SDS011;919;48.274;12.292;2023-11-21T12:26:42;1.80;;;1.70;;
1799;SDS011;919;48.274;12.292;2023-11-21T12:29:10;1.53;;;1.43;;
1799;SDS011;919;48.274;12.292;2023-11-21T12:31:36;1.53;;;1.43;;
1799;SDS011;919;48.274;12.292;2023-11-21T12:34:05;1.93;;;1.83;;
1799;SDS011;919;48.274;12.292;2023-11-21T12:36:32;1.63;;;1.53;;
1799;SDS011;919;48.274;12.292;2023-11-21T12:39:00;1.53;;;1.43;;
1799;SDS011;919;48.274;12.292;2023-11-21T12:41:28;1.73;;;1.63;;
1799;SDS011;919;48.274;12.292;2023-11-21T12:43:55;1.60;;;1.50;;
1799;SDS011;919;48.274;12.292;2023-11-21T12:46:22;1.60;;;1.50;;
1799;SDS011;919;48.274;12.292;2023-11-21T12:48:51;1.60;;;1.50;;
1799;SDS011;919;48.274;12.292;2023-11-21T12:51:19;1.93;;;1.83;;
1799;SDS011;919;48.274;12.292;2023-11-21T12:53:47;1.60;;;1.50;;
1799;SDS011;919;48.274;12.292;2023-11-21T12:56:15;1.80;;;1.63;;
1799;SDS011;919;48.274;12.292;2023-11-21T12:58:44;1.53;;;1.43;;
1799;SDS011;919;48.274;12.292;2023-11-21T13:01:12;2.00;;;1.90;;
1799;SDS011;919;48.274;12.292;2023-11-21T13:03:43;1.50;;;1.40;;
1799;SDS011;919;48.274;12.292;2023-11-21T13:06:13;2.33;;;2.13;;
1799;SDS011;919;48.274;12.292;2023-11-21T13:08:43;3.47;;;1.93;;
1799;SDS011;919;48.274;12.292;2023-11-21T13:11:11;4.30;;;1.80;;
1799;SDS011;919;48.274;12.292;2023-11-21T13:13:41;1.77;;;1.67;;
1799;SDS011;919;48.274;12.292;2023-11-21T13:16:09;1.97;;;1.87;;
1799;SDS011;919;48.274;12.292;2023-11-21T13:18:36;2.60;;;1.93;;
1799;SDS011;919;48.274;12.292;2023-11-21T13:21:05;2.33;;;2.13;;
1799;SDS011;919;48.274;12.292;2023-11-21T13:23:36;2.00;;;1.90;;
1799;SDS011;919;48.274;12.292;2023-11-21T13:26:05;2.30;;;2.10;;
1799;SDS011;919;48.274;12.292;2023-11-21T13:28:32;3.47;;;2.23;;
1799;SDS011;919;48.274;12.292;2023-11-21T13:30:59;2.60;;;2.40;;
1799;SDS011;919;48.274;12.292;2023-11-21T13:33:34;2.03;;;1.93;;
1799;SDS011;919;48.274;12.292;2023-11-21T13:36:03;2.50;;;2.10;;
1799;SDS011;919;48.274;12.292;2023-11-21T13:38:33;2.00;;;1.90;;
1799;SDS011;919;48.274;12.292;2023-11-21T13:41:01;2.20;;;2.10;;
1799;SDS011;919;48.274;12.292;2023-11-21T13:43:35;2.47;;;2.27;;
1799;SDS011;919;48.274;12.292;2023-11-21T13:46:04;2.40;;;2.30;;
1799;SDS011;919;48.274;12.292;2023-11-21T13:48:38;2.50;;;2.30;;
1799;SDS011;919;48.274;12.292;2023-11-21T13:51:08;1.77;;;1.67;;
1799;SDS011;919;48.274;12.292;2023-11-21T13:53:42;3.00;;;2.57;;
1799;SDS011;919;48.274;12.292;2023-11-21T13:56:09;2.60;;;2.20;;
1799;SDS011;919;48.274;12.292;2023-11-21T13:58:39;4.30;;;2.80;;
1799;SDS011;919;48.274;12.292;2023-11-21T14:01:11;2.60;;;2.10;;
1799;SDS011;919;48.274;12.292;2023-11-21T14:03:57;2.60;;;2.07;;
1799;SDS011;919;48.274;12.292;2023-11-21T14:06:33;4.80;;;2.80;;
1799;SDS011;919;48.274;12.292;2023-11-21T14:09:07;1.93;;;1.70;;
1799;SDS011;919;48.274;12.292;2023-11-21T14:11:34;2.10;;;2.00;;
1799;SDS011;919;48.274;12.292;2023-11-21T14:14:04;2.00;;;1.90;;
1799;SDS011;919;48.274;12.292;2023-11-21T14:16:31;1.43;;;1.43;;
1799;SDS011;919;48.274;12.292;2023-11-21T14:18:58;2.80;;;1.67;;
1799;SDS011;919;48.274;12.292;2023-11-21T14:21:45;1.77;;;1.67;;
1799;SDS011;919;48.274;12.292;2023-11-21T14:24:51;1.53;;;1.47;;
1799;SDS011;919;48.274;12.292;2023-11-21T14:28:01;3.63;;;1.90;;
1799;SDS011;919;48.274;12.292;2023-11-21T14:30:29;2.03;;;1.93;;
1799;SDS011;919;48.274;12.292;2023-11-21T14:33:01;2.33;;;2.20;;
1799;SDS011;919;48.274;12.292;2023-11-21T14:35:28;4.83;;;1.73;;
1799;SDS011;919;48.274;12.292;2023-11-21T14:37:57;2.03;;;1.93;;
1799;SDS011;919;48.274;12.292;2023-11-21T14:40:25;2.40;;;2.23;;
1799;SDS011;919;48.274;12.292;2023-11-21T14:43:04;1.80;;;1.70;;
1799;SDS011;919;48.274;12.292;2023-11-21T14:45:53;2.00;;;1.77;;
1799;SDS011;919;48.274;12.292;2023-11-21T14:52:03;2.47;;;2.13;;
1799;SDS011;919;48.274;12.292;2023-11-21T14:54:42;2.70;;;2.50;;
1799;SDS011;919;48.274;12.292;2023-11-21T14:57:11;2.60;;;2.40;;
1799;SDS011;919;48.274;12.292;2023-11-21T14:59:43;3.67;;;3.27;;
1799;SDS011;919;48.274;12.292;2023-11-21T15:02:15;2.70;;;2.50;;
1799;SDS011;919;48.274;12.292;2023-11-21T15:04:44;4.43;;;3.87;;
1799;SDS011;919;48.274;12.292;2023-11-21T15:07:10;3.00;;;2.70;;
1799;SDS011;919;48.274;12.292;2023-11-21T15:09:37;3.50;;;2.80;;
1799;SDS011;919;48.274;12.292;2023-11-21T15:12:07;3.50;;;2.67;;
1799;SDS011;919;48.274;12.292;2023-11-21T15:14:42;3.10;;;2.80;;
1799;SDS011;919;48.274;12.292;2023-11-21T15:17:10;2.70;;;2.50;;
1799;SDS011;919;48.274;12.292;2023-11-21T15:19:42;2.43;;;2.23;;
1799;SDS011;919;48.274;12.292;2023-11-21T15:22:10;2.83;;;2.63;;
1799;SDS011;919;48.274;12.292;2023-11-21T15:24:40;3.10;;;2.80;;
1799;SDS011;919;48.274;12.292;2023-11-21T15:27:09;2.77;;;2.57;;
1799;SDS011;919;48.274;12.292;2023-11-21T15:29:36;3.27;;;2.33;;
1799;SDS011;919;48.274;12.292;2023-11-21T15:32:04;4.20;;;2.83;;
1799;SDS011;919;48.274;12.292;2023-11-21T15:34:32;2.97;;;2.67;;
1799;SDS011;919;48.274;12.292;2023-11-21T15:37:00;3.60;;;2.53;;
1799;SDS011;919;48.274;12.292;2023-11-21T15:39:27;2.60;;;2.40;;
1799;SDS011;919;48.274;12.292;2023-11-21T15:41:55;2.80;;;2.50;;
1799;SDS011;919;48.274;12.292;2023-11-21T15:44:30;2.70;;;2.50;;